createdAt,value
2022-07-25T00:00:10.117Z,3.47
2022-07-25T00:02:38.418Z,3.45
2022-07-25T00:05:07.134Z,3.55
2022-07-25T00:07:35.023Z,3.30
2022-07-25T00:10:04.654Z,3.47
2022-07-25T00:12:32.637Z,3.35
2022-07-25T00:15:00.659Z,3.63
2022-07-25T00:17:28.556Z,3.05
2022-07-25T00:19:56.529Z,3.30
2022-07-25T00:22:24.471Z,3.38
2022-07-25T00:24:52.339Z,3.60
2022-07-25T00:27:21.569Z,3.05
2022-07-25T00:29:49.455Z,3.70
2022-07-25T00:32:17.466Z,3.58
2022-07-25T00:34:45.360Z,3.35
2022-07-25T00:37:13.228Z,3.50
2022-07-25T00:39:41.128Z,3.40
2022-07-25T00:42:09.169Z,3.40
2022-07-25T00:44:38.525Z,3.50
2022-07-25T00:47:06.476Z,3.63
2022-07-25T00:49:34.340Z,3.97
2022-07-25T00:52:02.441Z,3.97
2022-07-25T00:54:30.762Z,4.00
2022-07-25T00:56:58.728Z,4.00
2022-07-25T00:59:26.659Z,3.70
2022-07-25T01:01:56.062Z,3.95
2022-07-25T01:04:24.034Z,3.65
2022-07-25T01:06:52.356Z,3.83
2022-07-25T01:09:21.517Z,4.10
2022-07-25T01:11:49.640Z,4.15
2022-07-25T01:14:17.517Z,3.83
2022-07-25T01:16:45.406Z,3.78
2022-07-25T01:19:14.698Z,4.10
2022-07-25T01:21:43.991Z,3.78
2022-07-25T01:24:12.625Z,3.60
2022-07-25T01:26:40.880Z,3.90
2022-07-25T01:29:08.745Z,3.80
2022-07-25T01:31:36.769Z,3.95
2022-07-25T01:34:05.209Z,3.70
2022-07-25T01:36:33.313Z,3.95
2022-07-25T01:39:02.536Z,3.63
2022-07-25T01:41:30.481Z,4.00
2022-07-25T01:43:58.421Z,3.75
2022-07-25T01:46:26.395Z,3.65
2022-07-25T01:48:54.365Z,3.92
2022-07-25T01:51:22.450Z,4.30
2022-07-25T01:53:54.252Z,3.88
2022-07-25T01:56:23.495Z,3.97
2022-07-25T01:58:51.773Z,4.05
2022-07-25T02:01:21.848Z,3.80
2022-07-25T02:03:50.277Z,3.97
2022-07-25T02:06:19.434Z,4.43
2022-07-25T02:08:47.326Z,4.10
2022-07-25T02:11:16.003Z,4.15
2022-07-25T02:13:45.584Z,4.10
2022-07-25T02:16:13.596Z,4.10
2022-07-25T02:18:41.537Z,3.80
2022-07-25T02:21:14.457Z,3.78
2022-07-25T02:23:43.338Z,4.13
2022-07-25T02:26:11.894Z,3.45
2022-07-25T02:28:40.095Z,4.00
2022-07-25T02:31:10.091Z,3.70
2022-07-25T02:33:38.450Z,3.67
2022-07-25T02:36:06.723Z,3.90
2022-07-25T02:38:34.651Z,3.85
2022-07-25T02:41:02.640Z,3.47
2022-07-25T02:43:30.989Z,3.65
2022-07-25T02:45:59.010Z,3.90
2022-07-25T02:48:28.383Z,3.60
2022-07-25T02:50:56.384Z,3.80
2022-07-25T02:53:40.251Z,3.33
2022-07-25T02:56:12.167Z,2.92
2022-07-25T02:58:42.193Z,3.50
2022-07-25T03:01:10.523Z,3.75
2022-07-25T03:03:39.907Z,3.90
2022-07-25T03:06:08.222Z,3.42
2022-07-25T03:08:36.092Z,4.00
2022-07-25T03:11:04.101Z,3.50
2022-07-25T03:13:33.085Z,3.78
2022-07-25T03:16:01.356Z,4.22
2022-07-25T03:18:29.368Z,4.25
2022-07-25T03:20:58.576Z,4.10
2022-07-25T03:23:27.325Z,4.50
2022-07-25T03:25:55.342Z,4.50
2022-07-25T03:28:24.597Z,4.43
2022-07-25T03:30:52.834Z,4.28
2022-07-25T03:33:21.002Z,4.38
2022-07-25T03:35:48.859Z,4.70
2022-07-25T03:38:18.117Z,4.32
2022-07-25T03:40:46.018Z,4.70
2022-07-25T03:43:13.991Z,4.22
2022-07-25T03:45:41.907Z,4.20
2022-07-25T03:48:09.796Z,4.10
2022-07-25T03:50:37.732Z,4.30
2022-07-25T03:53:05.638Z,3.90
2022-07-25T03:55:35.480Z,4.15
2022-07-25T03:58:03.344Z,3.97
2022-07-25T04:00:31.230Z,3.80
2022-07-25T04:02:59.111Z,3.90
2022-07-25T04:05:27.303Z,4.00
2022-07-25T04:07:55.266Z,3.65
2022-07-25T04:10:23.307Z,3.45
2022-07-25T04:12:52.792Z,4.03
2022-07-25T04:15:20.709Z,3.67
2022-07-25T04:17:48.601Z,3.50
2022-07-25T04:20:16.716Z,3.67
2022-07-25T04:22:46.996Z,3.78
2022-07-25T04:25:15.261Z,3.88
2022-07-25T04:27:43.423Z,4.05
2022-07-25T04:30:24.187Z,3.72
2022-07-25T04:32:53.115Z,5.18
2022-07-25T04:35:21.139Z,5.70
2022-07-25T04:37:49.290Z,4.97
2022-07-25T04:40:17.373Z,4.97
2022-07-25T04:42:45.317Z,5.20
2022-07-25T04:45:17.557Z,4.35
2022-07-25T04:47:46.010Z,4.18
2022-07-25T04:50:14.008Z,3.67
2022-07-25T04:52:42.023Z,3.20
2022-07-25T04:55:10.679Z,2.97
2022-07-25T04:57:38.604Z,2.97
2022-07-25T05:00:08.596Z,2.65
2022-07-25T05:02:38.336Z,2.22
2022-07-25T05:05:08.470Z,1.77
2022-07-25T05:07:49.180Z,2.47
2022-07-25T05:10:17.165Z,2.60
2022-07-25T05:12:45.124Z,2.20
2022-07-25T05:15:13.572Z,2.00
2022-07-25T05:17:43.080Z,1.73
2022-07-25T05:20:12.421Z,1.75
2022-07-25T05:22:40.790Z,1.67
2022-07-25T05:25:10.593Z,1.92
2022-07-25T05:27:39.098Z,2.03
2022-07-25T05:30:09.702Z,1.60
2022-07-25T05:32:37.673Z,1.80
2022-07-25T05:35:08.801Z,1.58
2022-07-25T05:37:37.311Z,1.60
2022-07-25T05:40:06.211Z,1.50
2022-07-25T05:42:34.205Z,1.67
2022-07-25T05:45:02.417Z,1.50
2022-07-25T05:47:30.288Z,1.83
2022-07-25T05:49:58.160Z,1.80
2022-07-25T05:52:27.448Z,2.00
2022-07-25T05:54:55.393Z,1.77
2022-07-25T05:57:23.265Z,2.00
2022-07-25T05:59:51.226Z,2.00
2022-07-25T06:02:19.289Z,1.95
2022-07-25T06:04:47.261Z,1.95
2022-07-25T06:07:17.024Z,1.80
2022-07-25T06:09:46.563Z,1.90
2022-07-25T06:12:14.794Z,2.78
2022-07-25T06:14:42.832Z,2.05
2022-07-25T06:17:10.833Z,1.80
2022-07-25T06:19:38.747Z,1.92
2022-07-25T06:22:08.045Z,2.10
2022-07-25T06:24:36.139Z,2.00
2022-07-25T06:27:05.696Z,1.90
2022-07-25T06:29:33.691Z,1.80
2022-07-25T06:32:01.665Z,2.00
2022-07-25T06:34:29.807Z,2.15
2022-07-25T06:36:58.168Z,1.80
2022-07-25T06:39:26.260Z,2.05
2022-07-25T06:41:54.119Z,1.77
2022-07-25T06:44:23.366Z,2.00
2022-07-25T06:46:51.313Z,2.05
2022-07-25T06:49:19.409Z,2.17
2022-07-25T06:51:47.321Z,1.90
2022-07-25T06:54:15.649Z,1.98
2022-07-25T06:56:43.512Z,1.55
2022-07-25T06:59:11.700Z,1.67
2022-07-25T07:01:41.046Z,1.50
2022-07-25T07:04:09.337Z,1.70
2022-07-25T07:06:38.655Z,2.05
2022-07-25T07:09:07.872Z,1.75
2022-07-25T07:11:35.938Z,2.20
2022-07-25T07:14:04.270Z,1.98
2022-07-25T07:16:32.949Z,1.55
2022-07-25T07:19:02.257Z,2.80
2022-07-25T07:21:30.248Z,1.83
2022-07-25T07:23:59.009Z,1.88
2022-07-25T07:26:26.943Z,1.88
2022-07-25T07:28:56.013Z,1.77
2022-07-25T07:31:24.010Z,1.90
2022-07-25T07:33:52.059Z,1.98
2022-07-25T07:36:21.776Z,1.60
2022-07-25T07:38:49.786Z,1.90
2022-07-25T07:41:17.694Z,2.00
2022-07-25T07:43:45.610Z,1.50
2022-07-25T07:46:13.653Z,1.98
2022-07-25T07:48:41.661Z,2.17
2022-07-25T07:51:09.576Z,1.88
2022-07-25T07:53:56.285Z,1.98
2022-07-25T07:56:24.247Z,1.65
2022-07-25T07:58:52.125Z,1.70
2022-07-25T08:01:20.061Z,1.88
2022-07-25T08:03:48.025Z,1.60
2022-07-25T08:06:16.082Z,1.80
2022-07-25T08:08:45.305Z,1.70
2022-07-25T08:11:13.200Z,1.73
2022-07-25T08:13:41.099Z,1.85
2022-07-25T08:16:11.808Z,2.08
2022-07-25T08:18:39.769Z,1.92
2022-07-25T08:21:09.030Z,2.20
2022-07-25T08:23:38.957Z,2.45
2022-07-25T08:26:08.977Z,1.85
2022-07-25T08:28:36.900Z,2.40
2022-07-25T08:31:04.927Z,2.08
2022-07-25T08:33:32.978Z,2.17
2022-07-25T08:36:01.129Z,1.60
2022-07-25T08:38:30.065Z,2.22
2022-07-25T08:40:59.756Z,1.85
2022-07-25T08:43:32.917Z,2.38
2022-07-25T08:46:02.925Z,2.17
2022-07-25T08:48:30.944Z,1.88
2022-07-25T08:51:00.365Z,2.50
2022-07-25T08:53:33.195Z,2.30
2022-07-25T08:56:08.006Z,2.80
2022-07-25T08:58:41.441Z,2.25
2022-07-25T09:01:09.563Z,2.80
2022-07-25T09:03:37.549Z,2.30
2022-07-25T09:06:18.654Z,2.20
2022-07-25T09:08:54.415Z,2.40
2022-07-25T09:11:29.712Z,2.58
2022-07-25T09:14:07.096Z,2.65
2022-07-25T09:16:40.119Z,2.55
2022-07-25T09:19:11.803Z,2.42
2022-07-25T09:21:40.885Z,2.60
2022-07-25T09:24:10.314Z,2.78
2022-07-25T09:26:46.219Z,3.00
2022-07-25T09:29:23.893Z,2.50
2022-07-25T09:31:52.906Z,2.58
2022-07-25T09:34:38.068Z,2.72
2022-07-25T09:37:09.056Z,2.78
2022-07-25T09:39:45.815Z,2.28
2022-07-25T09:42:19.268Z,2.45
2022-07-25T09:45:00.427Z,2.63
2022-07-25T09:47:28.864Z,2.50
2022-07-25T09:49:57.097Z,3.10
2022-07-25T09:52:25.090Z,2.58
2022-07-25T09:54:54.702Z,2.70
2022-07-25T09:57:23.551Z,3.03
2022-07-25T09:59:53.914Z,2.60
2022-07-25T10:02:33.908Z,2.78
2022-07-25T10:05:14.112Z,3.08
2022-07-25T10:07:46.040Z,2.85
2022-07-25T10:10:24.928Z,3.15
2022-07-25T10:13:11.035Z,3.08
2022-07-25T10:15:46.628Z,2.53
2022-07-25T10:18:15.908Z,2.53
2022-07-25T10:20:45.187Z,3.10
2022-07-25T10:23:24.496Z,2.45
2022-07-25T10:26:11.214Z,2.80
2022-07-25T10:28:42.832Z,2.83
2022-07-25T10:31:24.242Z,3.10
2022-07-25T10:33:53.920Z,2.42
2022-07-25T10:36:23.368Z,2.85
2022-07-25T10:38:53.509Z,2.85
2022-07-25T10:41:26.976Z,3.13
2022-07-25T10:43:58.772Z,2.60
2022-07-25T10:46:30.833Z,3.33
2022-07-25T10:49:11.208Z,3.00
2022-07-25T10:51:41.785Z,3.15
2022-07-25T10:54:14.497Z,3.22
2022-07-25T10:56:53.975Z,3.13
2022-07-25T10:59:33.950Z,3.00
2022-07-25T11:02:04.660Z,3.08
2022-07-25T11:04:32.697Z,2.60
2022-07-25T11:07:09.791Z,3.50
2022-07-25T11:09:38.067Z,3.03
2022-07-25T11:12:06.755Z,2.80
2022-07-25T11:14:37.441Z,3.10
2022-07-25T11:17:15.212Z,2.75
2022-07-25T11:19:44.693Z,2.55
2022-07-25T11:22:13.172Z,2.28
2022-07-25T11:24:42.977Z,2.10
2022-07-25T11:27:13.372Z,2.40
2022-07-25T11:29:42.061Z,2.42
2022-07-25T11:32:12.327Z,1.88
2022-07-25T11:34:44.625Z,2.10
2022-07-25T11:37:14.597Z,2.08
2022-07-25T11:39:44.538Z,2.30
2022-07-25T11:42:16.180Z,2.40
2022-07-25T11:44:47.887Z,2.20
2022-07-25T11:47:27.629Z,2.13
2022-07-25T11:49:58.413Z,2.58
2022-07-25T11:52:29.756Z,2.15
2022-07-25T11:55:00.110Z,2.33
2022-07-25T11:57:30.673Z,2.92
2022-07-25T12:00:00.221Z,1.90
2022-07-25T12:02:31.083Z,2.30
2022-07-25T12:05:04.049Z,2.08
2022-07-25T12:07:44.559Z,1.63
2022-07-25T12:10:15.667Z,2.45
2022-07-25T12:12:51.617Z,2.05
2022-07-25T12:15:21.895Z,2.25
2022-07-25T12:17:50.723Z,1.60
2022-07-25T12:20:21.296Z,2.30
2022-07-25T12:22:50.375Z,1.85
2022-07-25T12:25:18.776Z,1.75
2022-07-25T12:27:46.882Z,1.60
2022-07-25T12:30:15.659Z,2.20
2022-07-25T12:32:43.826Z,1.73
2022-07-25T12:35:14.500Z,2.10
2022-07-25T12:37:44.338Z,1.85
2022-07-25T12:40:14.189Z,2.05
2022-07-25T12:42:42.191Z,1.70
2022-07-25T12:45:10.994Z,2.33
2022-07-25T12:47:38.941Z,1.83
2022-07-25T12:50:07.942Z,1.95
2022-07-25T12:52:36.050Z,1.65
2022-07-25T12:55:06.582Z,1.60
2022-07-25T12:57:34.979Z,1.70
2022-07-25T13:00:03.148Z,1.70
2022-07-25T13:02:31.081Z,1.63
2022-07-25T13:04:59.085Z,1.65
2022-07-25T13:07:27.088Z,1.52
2022-07-25T13:09:55.135Z,1.60
2022-07-25T13:12:24.461Z,1.63
2022-07-25T13:14:52.392Z,1.73
2022-07-25T13:17:23.631Z,1.70
2022-07-25T13:19:55.398Z,1.50
2022-07-25T13:22:23.367Z,1.70
2022-07-25T13:24:51.371Z,1.75
2022-07-25T13:27:20.018Z,2.35
2022-07-25T13:29:53.892Z,1.75
2022-07-25T13:32:22.199Z,1.83
2022-07-25T13:34:50.111Z,2.15
2022-07-25T13:37:18.007Z,1.98
2022-07-25T13:39:46.012Z,2.10
2022-07-25T13:42:13.930Z,1.50
2022-07-25T13:44:41.812Z,1.33
2022-07-25T13:47:11.218Z,1.50
2022-07-25T13:49:39.300Z,1.17
2022-07-25T13:52:07.801Z,1.00
2022-07-25T13:54:35.745Z,1.20
2022-07-25T13:57:04.212Z,1.25
2022-07-25T13:59:32.083Z,1.25
2022-07-25T14:02:00.311Z,1.17
2022-07-25T14:04:30.257Z,1.65
2022-07-25T14:06:58.384Z,2.05
2022-07-25T14:09:26.372Z,2.08
2022-07-25T14:11:54.383Z,1.70
2022-07-25T14:14:22.312Z,1.75
2022-07-25T14:16:50.308Z,1.83
2022-07-25T14:19:18.364Z,1.50
2022-07-25T14:21:47.647Z,1.30
2022-07-25T14:24:15.544Z,1.20
2022-07-25T14:26:43.463Z,1.52
2022-07-25T14:29:12.190Z,1.10
2022-07-25T14:31:41.128Z,1.17
2022-07-25T14:34:09.125Z,1.00
2022-07-25T14:36:37.560Z,1.10
2022-07-25T14:39:07.202Z,1.40
2022-07-25T14:41:35.545Z,0.90
2022-07-25T14:44:03.486Z,1.50
2022-07-25T14:46:31.390Z,2.00
2022-07-25T14:48:59.647Z,1.48
2022-07-25T14:51:28.499Z,1.65
2022-07-25T14:53:56.373Z,2.00
2022-07-25T14:56:25.669Z,1.60
2022-07-25T14:58:53.546Z,2.10
2022-07-25T15:01:24.382Z,1.42
2022-07-25T15:03:53.479Z,1.58
2022-07-25T15:06:24.622Z,1.73
2022-07-25T15:08:56.796Z,1.30
2022-07-25T15:11:26.082Z,1.33
2022-07-25T15:13:53.997Z,1.73
2022-07-25T15:16:22.086Z,1.65
2022-07-25T15:19:14.600Z,1.70
2022-07-25T15:21:38.570Z,1.70
2022-07-25T15:24:07.553Z,1.80
2022-07-25T15:26:37.873Z,1.40
2022-07-25T15:29:09.629Z,2.03
2022-07-25T15:31:38.362Z,1.80
2022-07-25T15:34:06.361Z,1.95
2022-07-25T15:36:34.259Z,1.70
2022-07-25T15:39:02.108Z,2.25
2022-07-25T15:41:31.028Z,2.10
2022-07-25T15:44:00.688Z,1.50
2022-07-25T15:46:29.027Z,2.08
2022-07-25T15:48:57.860Z,2.38
2022-07-25T15:51:25.942Z,2.22
2022-07-25T15:53:53.820Z,2.03
2022-07-25T15:56:21.867Z,2.00
2022-07-25T15:58:50.428Z,2.10
2022-07-25T16:01:20.073Z,2.55
2022-07-25T16:03:48.111Z,2.15
2022-07-25T16:06:20.502Z,2.08
2022-07-25T16:08:50.741Z,2.13
2022-07-25T16:11:18.952Z,2.30
2022-07-25T16:13:46.843Z,2.40
2022-07-25T16:16:14.783Z,2.20
2022-07-25T16:18:44.219Z,2.20
2022-07-25T16:21:12.289Z,2.08
2022-07-25T16:23:44.965Z,1.80
2022-07-25T16:26:13.940Z,1.90
2022-07-25T16:28:41.927Z,1.80
2022-07-25T16:31:10.116Z,2.33
2022-07-25T16:33:38.125Z,1.83
2022-07-25T16:36:08.207Z,2.67
2022-07-25T16:38:36.105Z,2.03
2022-07-25T16:41:04.116Z,2.10
2022-07-25T16:43:32.021Z,2.05
2022-07-25T16:45:59.913Z,2.20
2022-07-25T16:48:27.900Z,2.05
2022-07-25T16:50:55.808Z,2.08
2022-07-25T16:53:25.419Z,2.00
2022-07-25T16:55:53.344Z,1.63
2022-07-25T16:58:21.254Z,2.38
2022-07-25T17:00:49.189Z,1.88
2022-07-25T17:03:17.143Z,1.92
2022-07-25T17:05:46.888Z,2.30
2022-07-25T17:08:14.773Z,1.70
2022-07-25T17:10:44.412Z,2.20
2022-07-25T17:13:12.338Z,2.08
2022-07-25T17:15:40.487Z,1.85
2022-07-25T17:18:08.426Z,1.58
2022-07-25T17:20:36.461Z,2.30
2022-07-25T17:23:04.675Z,2.10
2022-07-25T17:25:32.886Z,1.90
2022-07-25T17:28:02.618Z,2.47
2022-07-25T17:30:30.560Z,2.17
2022-07-25T17:32:59.597Z,1.80
2022-07-25T17:35:27.684Z,2.38
2022-07-25T17:37:55.592Z,2.20
2022-07-25T17:40:23.683Z,1.90
2022-07-25T17:42:51.653Z,1.92
2022-07-25T17:45:21.023Z,2.33
2022-07-25T17:47:49.034Z,2.33
2022-07-25T17:50:17.508Z,2.10
2022-07-25T17:52:45.517Z,1.83
2022-07-25T17:55:13.566Z,2.50
2022-07-25T17:57:42.106Z,3.05
2022-07-25T18:00:11.771Z,2.30
2022-07-25T18:02:41.657Z,2.10
2022-07-25T18:05:09.948Z,1.95
2022-07-25T18:07:40.699Z,2.42
2022-07-25T18:10:09.130Z,2.28
2022-07-25T18:12:37.020Z,2.08
2022-07-25T18:15:05.540Z,2.17
2022-07-25T18:17:33.553Z,2.10
2022-07-25T18:20:02.880Z,2.35
2022-07-25T18:22:30.774Z,2.05
2022-07-25T18:24:58.673Z,2.67
2022-07-25T18:27:26.965Z,2.70
2022-07-25T18:29:54.883Z,3.22
2022-07-25T18:32:22.771Z,2.85
2022-07-25T18:34:50.755Z,2.38
2022-07-25T18:37:20.134Z,2.30
2022-07-25T18:39:48.057Z,2.47
2022-07-25T18:42:15.958Z,2.53
2022-07-25T18:44:43.927Z,2.20
2022-07-25T18:47:11.975Z,2.55
2022-07-25T18:49:41.986Z,2.60
2022-07-25T18:52:09.863Z,2.83
2022-07-25T18:54:39.163Z,2.67
2022-07-25T18:57:07.144Z,2.40
2022-07-25T18:59:35.143Z,2.65
2022-07-25T19:02:03.203Z,2.85
2022-07-25T19:04:31.159Z,2.67
2022-07-25T19:06:59.621Z,3.13
2022-07-25T19:09:27.528Z,2.95
2022-07-25T19:11:57.040Z,2.67
2022-07-25T19:14:27.218Z,2.83
2022-07-25T19:16:55.490Z,2.72
2022-07-25T19:19:23.434Z,2.60
2022-07-25T19:21:51.466Z,3.00
2022-07-25T19:24:19.376Z,2.78
2022-07-25T19:26:48.318Z,3.22
2022-07-25T19:29:18.139Z,2.97
2022-07-25T19:31:46.444Z,2.58
2022-07-25T19:34:14.393Z,2.80
2022-07-25T19:36:45.723Z,3.10
2022-07-25T19:39:14.453Z,2.60
2022-07-25T19:41:46.699Z,2.85
2022-07-25T19:44:15.247Z,2.97
2022-07-25T19:46:44.860Z,3.35
2022-07-25T19:49:13.084Z,4.03
2022-07-25T19:51:41.196Z,3.00
2022-07-25T19:54:10.020Z,3.55
2022-07-25T19:56:38.207Z,3.05
2022-07-25T19:59:06.273Z,2.65
2022-07-25T20:01:35.911Z,2.58
2022-07-25T20:04:08.806Z,2.97
2022-07-25T20:06:37.368Z,3.45
2022-07-25T20:09:05.787Z,3.08
2022-07-25T20:11:34.597Z,3.25
2022-07-25T20:14:02.546Z,2.90
2022-07-25T20:16:30.716Z,3.25
2022-07-25T20:18:58.722Z,2.70
2022-07-25T20:21:28.021Z,2.38
2022-07-25T20:23:55.973Z,2.30
2022-07-25T20:26:24.057Z,2.97
2022-07-25T20:28:52.125Z,2.60
2022-07-25T20:31:22.206Z,3.03
2022-07-25T20:33:50.231Z,2.60
2022-07-25T20:36:18.569Z,2.80
2022-07-25T20:38:47.949Z,2.40
2022-07-25T20:41:16.753Z,2.42
2022-07-25T20:43:45.050Z,2.60
2022-07-25T20:46:12.994Z,3.28
2022-07-25T20:48:40.965Z,2.88
2022-07-25T20:51:08.953Z,3.00
2022-07-25T20:53:36.959Z,3.10
2022-07-25T20:56:06.494Z,3.20
2022-07-25T20:58:34.456Z,3.05
2022-07-25T21:01:02.358Z,3.13
2022-07-25T21:03:30.974Z,3.08
2022-07-25T21:06:00.019Z,2.65
2022-07-25T21:08:27.941Z,2.90
2022-07-25T21:11:53.063Z,3.10
2022-07-25T21:14:20.953Z,3.22
2022-07-25T21:16:48.979Z,3.00
2022-07-25T21:19:17.002Z,3.78
2022-07-25T21:21:45.013Z,3.50
2022-07-25T21:24:12.973Z,3.67
2022-07-25T21:26:42.236Z,3.13
2022-07-25T21:29:10.653Z,3.22
2022-07-25T21:31:39.130Z,3.08
2022-07-25T21:34:07.216Z,2.72
2022-07-25T21:36:35.144Z,3.22
2022-07-25T21:39:03.084Z,3.28
2022-07-25T21:41:31.529Z,2.67
2022-07-25T21:44:00.802Z,3.28
2022-07-25T21:46:28.735Z,3.28
2022-07-25T21:49:40.643Z,3.08
2022-07-25T21:52:07.896Z,3.20
2022-07-25T21:54:36.340Z,3.40
2022-07-25T21:57:04.510Z,3.33
2022-07-25T21:59:33.772Z,3.72
2022-07-25T22:02:01.876Z,4.15
2022-07-25T22:04:29.770Z,3.70
2022-07-25T22:06:57.820Z,3.72
2022-07-25T22:09:25.702Z,3.10
2022-07-25T22:11:55.178Z,2.92
2022-07-25T22:14:23.148Z,3.38
2022-07-25T22:16:52.642Z,3.30
2022-07-25T22:19:22.500Z,3.25
2022-07-25T22:21:50.812Z,3.13
2022-07-25T22:24:18.688Z,3.15
2022-07-25T22:26:46.597Z,4.10
2022-07-25T22:29:14.496Z,3.03
2022-07-25T22:31:42.414Z,2.97
2022-07-25T22:34:11.672Z,2.80
2022-07-25T22:36:39.567Z,2.65
2022-07-25T22:39:07.762Z,2.95
2022-07-25T22:41:35.859Z,2.70
2022-07-25T22:44:03.860Z,2.80
2022-07-25T22:46:32.713Z,3.00
2022-07-25T22:49:00.727Z,2.90
2022-07-25T22:51:30.594Z,2.90
2022-07-25T22:53:58.954Z,2.88
2022-07-25T22:56:27.629Z,2.60
2022-07-25T22:58:55.891Z,2.80
2022-07-25T23:01:24.053Z,2.72
2022-07-25T23:03:52.246Z,2.53
2022-07-25T23:06:21.913Z,2.40
2022-07-25T23:08:51.453Z,2.40
2022-07-25T23:11:19.457Z,2.50
2022-07-25T23:13:47.384Z,1.92
2022-07-25T23:16:15.441Z,2.05
2022-07-25T23:18:43.646Z,2.33
2022-07-25T23:21:11.701Z,3.10
2022-07-25T23:23:39.616Z,2.30
2022-07-25T23:26:08.865Z,2.55
2022-07-25T23:28:36.844Z,2.13
2022-07-25T23:31:04.962Z,2.50
2022-07-25T23:33:33.031Z,2.67
2022-07-25T23:36:00.914Z,2.40
2022-07-25T23:38:28.925Z,1.98
2022-07-25T23:40:56.933Z,2.30
2022-07-25T23:43:38.616Z,2.28
2022-07-25T23:46:14.347Z,1.80
2022-07-25T23:48:43.068Z,2.10
2022-07-25T23:51:10.993Z,2.05
2022-07-25T23:53:39.020Z,2.20
2022-07-25T23:56:07.121Z,1.60
2022-07-25T23:58:36.377Z,1.80
